Terminal Aerodrome Forecast
Issued by NWS Blacksburg, VA

Current Version | Previous Version | Text Only | Print | Product List | Glossary Off
Versions: 1 2 3 4 5 6 7 8 9 10 11 12 13 14 15 16 17 18 19 20 21 22 23 24 25 26 27 28 29 30 31 32 33 34 35 36 37 38 39 40 41 42 43 44

000
FTUS41 KRNK 011140
TAFBLF
TAF
KBLF 011140Z 0112/0212 33007KT 5SM BR VCSH OVC003
      TEMPO 0112/0114 2SM BR OVC006
     FM011600 34007KT P6SM VCSH SCT011 OVC019
     FM011900 35009KT P6SM -SHRA OVC030
     FM012300 33007KT P6SM BKN050
     FM020600 31004KT P6SM SCT050=

USA.gov is the U.S. government's official web portal to all federal, state and local government web resources and services.